createdAt,value
2022-09-12T06:02:53.644Z,80.78
2022-09-12T06:05:21.418Z,79.17
2022-09-12T06:07:48.905Z,77.58
2022-09-12T06:10:17.969Z,76.24
2022-09-12T06:12:45.985Z,75.15
2022-09-12T06:15:14.483Z,73.46
2022-09-12T06:17:42.084Z,72.10
2022-09-12T06:20:09.876Z,71.29
2022-09-12T06:22:37.623Z,70.60
2022-09-12T06:25:05.598Z,69.35
2022-09-12T06:27:33.032Z,68.56
2022-09-12T06:30:00.918Z,67.86
2022-09-12T06:32:31.511Z,67.17
2022-09-12T06:34:59.094Z,66.24
2022-09-12T06:37:26.622Z,64.51
2022-09-12T06:39:56.022Z,64.43
2022-09-12T06:42:23.858Z,64.00
2022-09-12T06:44:52.336Z,63.00
2022-09-12T06:47:21.204Z,61.61
2022-09-12T06:49:49.211Z,61.56
2022-09-12T06:52:17.421Z,60.09
2022-09-12T06:54:45.113Z,58.41
2022-09-12T06:57:13.066Z,55.77
2022-09-12T06:59:40.623Z,53.65
2022-09-12T07:02:09.926Z,52.54
2022-09-12T07:04:37.394Z,49.00
2022-09-12T07:07:05.708Z,46.94
2022-09-12T07:09:33.451Z,46.35
2022-09-12T07:12:04.368Z,45.92
2022-09-12T07:14:32.142Z,46.21
2022-09-12T07:16:59.662Z,46.80
2022-09-12T07:19:27.231Z,48.11
2022-09-12T07:21:58.532Z,47.63
2022-09-12T07:24:26.397Z,46.83
2022-09-12T07:26:53.871Z,45.87
2022-09-12T07:29:37.855Z,45.22
2022-09-12T07:32:06.580Z,44.89
2022-09-12T07:34:34.497Z,45.74
2022-09-12T07:37:02.013Z,45.46
2022-09-12T07:39:29.756Z,46.15
2022-09-12T07:41:57.765Z,45.54
2022-09-12T07:44:25.428Z,44.95
2022-09-12T07:46:52.869Z,44.45
2022-09-12T07:49:20.322Z,43.96
2022-09-12T07:51:47.826Z,43.83
2022-09-12T07:54:15.933Z,43.34
2022-09-12T07:56:43.564Z,43.11
2022-09-12T07:59:11.316Z,42.69
2022-09-12T08:01:39.957Z,42.72
2022-09-12T08:04:07.705Z,43.25
2022-09-12T08:06:36.984Z,43.06
2022-09-12T08:09:05.732Z,42.79
2022-09-12T08:11:33.492Z,42.33
2022-09-12T08:14:03.037Z,41.65
2022-09-12T08:16:31.967Z,42.76
2022-09-12T08:19:03.667Z,42.34
2022-09-12T08:21:33.225Z,42.47
2022-09-12T08:24:03.893Z,42.59
2022-09-12T08:26:33.484Z,43.73
2022-09-12T08:29:01.878Z,44.78
2022-09-12T08:31:29.321Z,44.47
2022-09-12T08:33:58.090Z,45.00
2022-09-12T08:36:27.768Z,46.22
2022-09-12T08:39:00.735Z,46.88
2022-09-12T08:41:35.189Z,47.68
2022-09-12T08:44:14.398Z,47.87
2022-09-12T08:47:08.922Z,49.33
2022-09-12T08:49:49.004Z,50.45
2022-09-12T08:52:27.741Z,52.17
2022-09-12T08:54:56.717Z,52.57
2022-09-12T08:57:24.865Z,53.32
2022-09-12T08:59:54.504Z,54.29
2022-09-12T09:02:24.892Z,54.89
2022-09-12T09:05:07.193Z,55.59
2022-09-12T09:07:40.963Z,56.39
2022-09-12T09:10:24.336Z,55.98
2022-09-12T09:12:59.101Z,56.33
2022-09-12T09:15:34.482Z,56.93
2022-09-12T09:18:09.997Z,57.28
2022-09-12T09:20:41.292Z,57.94
2022-09-12T09:23:33.466Z,58.64
2022-09-12T09:26:10.998Z,59.33
2022-09-12T09:28:54.218Z,60.26
2022-09-12T09:31:24.463Z,60.43
2022-09-12T09:33:55.534Z,58.93
2022-09-12T09:37:13.534Z,58.75
2022-09-12T09:39:50.210Z,57.65
2022-09-12T09:42:23.739Z,57.44
2022-09-12T09:44:54.401Z,56.94
2022-09-12T09:47:22.116Z,56.68
2022-09-12T09:49:49.872Z,56.77
2022-09-12T09:52:24.905Z,56.85
2022-09-12T09:55:01.072Z,56.01
2022-09-12T09:57:34.827Z,55.00
2022-09-12T10:00:41.758Z,54.14
2022-09-12T10:03:13.207Z,54.36
2022-09-12T10:05:49.054Z,54.08
2022-09-12T10:08:27.524Z,53.13
2022-09-12T10:10:56.225Z,52.09
2022-09-12T10:13:53.383Z,51.90
2022-09-12T10:16:23.699Z,51.27
2022-09-12T10:18:52.653Z,51.89
2022-09-12T10:21:27.834Z,51.85
2022-09-12T10:24:06.490Z,50.46
2022-09-12T10:26:38.340Z,49.83
2022-09-12T10:29:18.854Z,49.35
2022-09-12T10:31:55.665Z,48.53
2022-09-12T10:34:44.746Z,49.22
2022-09-12T10:37:27.129Z,47.57
2022-09-12T10:39:57.411Z,47.85
2022-09-12T10:42:46.671Z,48.24
2022-09-12T10:45:32.455Z,48.38
2022-09-12T10:48:06.756Z,48.58
2022-09-12T10:50:43.142Z,47.18
2022-09-12T10:53:23.998Z,47.15
2022-09-12T10:56:06.902Z,47.23
2022-09-12T10:58:40.545Z,46.99
2022-09-12T11:01:42.329Z,47.35
2022-09-12T11:04:12.907Z,47.80
2022-09-12T11:06:45.013Z,47.58
2022-09-12T11:09:39.605Z,47.79
2022-09-12T11:12:22.814Z,47.83
2022-09-12T11:15:34.794Z,47.57
2022-09-12T11:18:30.392Z,48.37
2022-09-12T11:21:16.259Z,49.04
2022-09-12T11:24:04.516Z,48.65
2022-09-12T11:26:42.426Z,48.86
2022-09-12T11:29:31.760Z,49.02
2022-09-12T11:32:14.262Z,49.22
2022-09-12T11:35:03.131Z,49.46
2022-09-12T11:38:03.019Z,49.48
2022-09-12T11:40:45.543Z,49.37
2022-09-12T11:43:29.324Z,49.56
2022-09-12T11:46:05.225Z,49.76
2022-09-12T11:48:46.270Z,49.10
2022-09-12T11:51:19.918Z,49.61
2022-09-12T11:54:19.629Z,49.84
2022-09-12T11:56:50.842Z,49.00
2022-09-12T11:59:30.953Z,48.36
2022-09-12T12:02:00.362Z,48.57
2022-09-12T12:04:38.074Z,48.31
2022-09-12T12:07:08.128Z,48.26
2022-09-12T12:09:37.232Z,48.58
2022-09-12T12:12:09.415Z,48.15
2022-09-12T12:14:44.197Z,48.29
2022-09-12T12:17:24.245Z,48.44
2022-09-12T12:20:05.769Z,48.42
2022-09-12T12:22:36.090Z,48.64
2022-09-12T12:25:12.541Z,49.01
2022-09-12T12:28:01.818Z,48.84
2022-09-12T12:30:29.630Z,49.71
2022-09-12T12:33:07.397Z,50.69
2022-09-12T12:35:43.829Z,51.24
2022-09-12T12:38:33.743Z,51.82
2022-09-12T12:41:19.437Z,52.91
2022-09-12T12:43:50.871Z,53.84
2022-09-12T12:46:24.040Z,54.87
2022-09-12T12:48:54.400Z,55.72
2022-09-12T12:51:50.000Z,56.05
2022-09-12T12:54:27.182Z,56.46
2022-09-12T12:57:20.393Z,56.75
2022-09-12T12:59:52.488Z,56.45
2022-09-12T13:02:31.862Z,56.55
2022-09-12T13:05:02.612Z,56.92
2022-09-12T13:07:35.064Z,57.56
2022-09-12T13:10:04.551Z,57.42
2022-09-12T13:12:38.071Z,56.89
2022-09-12T13:15:46.563Z,56.13
2022-09-12T13:18:20.081Z,55.98
2022-09-12T13:20:55.620Z,56.24
2022-09-12T13:23:26.119Z,56.40
2022-09-12T13:25:56.074Z,56.12
2022-09-12T13:28:26.445Z,56.09
2022-09-12T13:31:18.352Z,56.53
2022-09-12T13:33:56.003Z,56.68
2022-09-12T13:36:51.588Z,56.75
2022-09-12T13:39:29.191Z,56.87
2022-09-12T13:42:17.922Z,57.33
2022-09-12T13:44:55.673Z,57.94
2022-09-12T13:47:36.923Z,58.02
2022-09-12T13:50:07.927Z,58.50
2022-09-12T13:52:38.280Z,58.54
2022-09-12T13:55:18.588Z,59.27
2022-09-12T13:57:46.101Z,59.85
2022-09-12T14:00:19.533Z,59.90
2022-09-12T14:02:48.500Z,59.95
2022-09-12T14:05:22.763Z,60.13
2022-09-12T14:07:58.512Z,59.84
2022-09-12T14:10:33.219Z,59.90
2022-09-12T14:13:03.404Z,60.52
2022-09-12T14:15:36.017Z,60.40
2022-09-12T14:18:06.808Z,60.62
2022-09-12T14:20:39.537Z,60.93
2022-09-12T14:23:27.519Z,61.10
2022-09-12T14:26:02.555Z,61.30
2022-09-12T14:28:31.309Z,61.04
2022-09-12T14:31:02.119Z,61.24
2022-09-12T14:33:45.901Z,60.71
2022-09-12T14:36:35.970Z,60.93
2022-09-12T14:39:18.512Z,60.47
2022-09-12T14:41:49.237Z,60.59
2022-09-12T14:44:21.066Z,60.91
2022-09-12T14:46:49.266Z,60.85
2022-09-12T14:49:46.079Z,60.84
2022-09-12T14:52:25.644Z,61.30
2022-09-12T14:54:57.786Z,61.46
2022-09-12T14:57:36.484Z,60.20
2022-09-12T15:00:12.707Z,59.91
2022-09-12T15:02:42.212Z,60.33
2022-09-12T15:05:10.772Z,60.56
2022-09-12T15:07:43.958Z,61.30
2022-09-12T15:10:22.953Z,61.48
2022-09-12T15:12:50.496Z,61.17
2022-09-12T15:15:20.815Z,60.91
2022-09-12T15:17:48.838Z,61.76
2022-09-12T15:20:16.786Z,62.15
2022-09-12T15:22:44.360Z,62.00
2022-09-12T15:25:13.353Z,62.34
2022-09-12T15:27:42.436Z,62.72
2022-09-12T15:30:12.201Z,62.95
2022-09-12T15:32:42.564Z,63.32
2022-09-12T15:35:23.142Z,63.67
2022-09-12T15:37:50.868Z,64.09
2022-09-12T15:40:19.139Z,64.37
2022-09-12T15:42:46.766Z,64.51
2022-09-12T15:45:25.940Z,63.94
2022-09-12T15:47:54.571Z,62.35
2022-09-12T15:50:22.498Z,61.35
2022-09-12T15:52:50.362Z,60.50
2022-09-12T15:55:28.332Z,60.87
2022-09-12T15:57:56.500Z,60.43
2022-09-12T16:00:24.802Z,60.27
2022-09-12T16:02:53.822Z,60.32
2022-09-12T16:05:25.279Z,60.36
2022-09-12T16:07:54.938Z,60.52
2022-09-12T16:10:29.696Z,60.71
2022-09-12T16:12:57.951Z,60.55
2022-09-12T16:15:26.178Z,61.02
2022-09-12T16:17:54.512Z,61.06
2022-09-12T16:20:22.790Z,61.40
2022-09-12T16:22:50.600Z,61.49
2022-09-12T16:25:18.587Z,61.75
2022-09-12T16:27:46.506Z,62.33
2022-09-12T16:30:14.537Z,62.57
2022-09-12T16:32:42.196Z,63.01
2022-09-12T16:35:09.998Z,63.33
2022-09-12T16:37:38.113Z,63.53
2022-09-12T16:40:07.329Z,63.70
2022-09-12T16:42:35.840Z,63.58
2022-09-12T16:45:03.830Z,64.10
2022-09-12T16:47:33.016Z,64.03
2022-09-12T16:50:00.532Z,64.46
2022-09-12T16:52:28.818Z,64.22
2022-09-12T16:54:56.452Z,64.17
2022-09-12T16:57:23.850Z,64.81
2022-09-12T16:59:52.118Z,65.53
2022-09-12T17:02:19.734Z,65.89
2022-09-12T17:04:47.548Z,65.19
2022-09-12T17:07:15.402Z,65.75
2022-09-12T17:09:47.433Z,65.85
2022-09-12T17:12:15.654Z,65.95
2022-09-12T17:14:43.371Z,66.37
2022-09-12T17:17:11.025Z,66.65
2022-09-12T17:19:38.876Z,66.78
2022-09-12T17:22:06.444Z,66.75
2022-09-12T17:24:34.166Z,66.95
2022-09-12T17:27:02.089Z,66.40
2022-09-12T17:29:29.834Z,67.13
2022-09-12T17:31:57.582Z,66.85
2022-09-12T17:34:25.308Z,67.19
2022-09-12T17:36:52.910Z,67.29
2022-09-12T17:39:20.685Z,67.27
2022-09-12T17:41:51.058Z,67.50
2022-09-12T17:44:20.236Z,67.46
2022-09-12T17:46:47.886Z,67.19
2022-09-12T17:49:18.740Z,67.17
2022-09-12T17:51:46.425Z,67.47
2022-09-12T17:54:16.338Z,68.05
2022-09-12T17:56:49.758Z,68.38
2022-09-12T17:59:19.596Z,68.29
2022-09-12T18:02:05.968Z,68.40
2022-09-12T18:04:33.712Z,68.09
2022-09-12T18:07:01.757Z,68.23
2022-09-12T18:09:30.777Z,68.46
2022-09-12T18:11:59.265Z,68.69
2022-09-12T18:14:28.324Z,68.87
2022-09-12T18:16:57.647Z,68.75
2022-09-12T18:19:27.314Z,68.92
2022-09-12T18:21:56.147Z,69.01
2022-09-12T18:24:24.663Z,69.69
2022-09-12T18:26:52.745Z,69.17
2022-09-12T18:29:21.518Z,68.88
2022-09-12T18:31:50.617Z,68.79
2022-09-12T18:34:18.508Z,69.34
2022-09-12T18:36:48.562Z,69.16
2022-09-12T18:39:17.970Z,69.18
2022-09-12T18:41:46.511Z,69.66
2022-09-12T18:44:14.755Z,69.76
2022-09-12T18:46:43.148Z,69.57
2022-09-12T18:49:11.152Z,69.98
2022-09-12T18:51:40.225Z,69.63
2022-09-12T18:54:12.784Z,70.51
2022-09-12T18:56:43.605Z,70.64
2022-09-12T18:59:15.560Z,70.73
2022-09-12T19:01:43.834Z,70.61
2022-09-12T19:04:13.660Z,71.10
2022-09-12T19:06:44.054Z,71.47
2022-09-12T19:09:14.756Z,70.82
2022-09-12T19:11:50.336Z,71.76
2022-09-12T19:14:22.614Z,71.74
2022-09-12T19:16:52.080Z,71.84
2022-09-12T19:19:21.288Z,71.32
2022-09-12T19:21:49.170Z,71.27
2022-09-12T19:24:17.517Z,71.50
2022-09-12T19:26:45.878Z,71.61
2022-09-12T19:29:14.799Z,71.83
2022-09-12T19:31:43.798Z,71.92
2022-09-12T19:34:13.388Z,72.16
2022-09-12T19:36:45.513Z,71.80
2022-09-12T19:39:17.407Z,72.71
2022-09-12T19:41:45.936Z,72.88
2022-09-12T19:44:14.587Z,72.67
2022-09-12T19:46:42.856Z,72.83
2022-09-12T19:49:12.956Z,72.97
2022-09-12T19:51:40.926Z,72.79
2022-09-12T19:54:08.454Z,73.70
2022-09-12T19:56:36.071Z,73.04
2022-09-12T19:59:05.505Z,73.47
2022-09-12T20:01:33.312Z,74.25
2022-09-12T20:04:01.256Z,74.22
2022-09-12T20:06:29.004Z,74.09
2022-09-12T20:08:56.548Z,74.45
2022-09-12T20:11:25.838Z,73.86
2022-09-12T20:13:53.552Z,74.38
2022-09-12T20:16:29.076Z,74.09
2022-09-12T20:19:00.607Z,74.41
2022-09-12T20:21:31.937Z,74.20
2022-09-12T20:24:15.867Z,74.59
2022-09-12T20:26:43.371Z,74.89
2022-09-12T20:29:11.499Z,75.48
2022-09-12T20:31:41.624Z,75.35
2022-09-12T20:34:16.002Z,74.91
2022-09-12T20:36:43.982Z,74.95
2022-09-12T20:39:14.628Z,75.10
2022-09-12T20:41:42.468Z,74.59
2022-09-12T20:44:10.326Z,75.63
2022-09-12T20:46:37.863Z,75.35
2022-09-12T20:49:05.762Z,76.08
2022-09-12T20:51:33.245Z,75.73
2022-09-12T20:54:03.287Z,75.62
2022-09-12T20:56:32.929Z,75.34
2022-09-12T20:59:01.104Z,75.98
2022-09-12T21:01:31.399Z,75.71
2022-09-12T21:04:01.810Z,76.18
2022-09-12T21:06:29.342Z,75.95
2022-09-12T21:09:00.695Z,76.11
2022-09-12T21:11:29.135Z,76.54
2022-09-12T21:13:56.815Z,76.74
2022-09-12T21:16:24.333Z,76.85
2022-09-12T21:18:57.360Z,76.82
2022-09-12T21:21:25.805Z,76.65
2022-09-12T21:23:57.932Z,76.39
2022-09-12T21:26:25.883Z,76.69
2022-09-12T21:28:53.838Z,77.01
2022-09-12T21:31:21.481Z,77.25
2022-09-12T21:33:49.590Z,77.02
2022-09-12T21:36:17.332Z,76.94
2022-09-12T21:38:45.110Z,77.60
2022-09-12T21:41:15.565Z,78.07
2022-09-12T21:43:44.048Z,77.75
2022-09-12T21:46:12.179Z,77.73
2022-09-12T21:48:39.742Z,77.70
2022-09-12T21:51:07.252Z,77.87
2022-09-12T21:53:34.938Z,78.45
2022-09-12T21:56:05.358Z,78.95
2022-09-12T21:58:33.375Z,79.28
2022-09-12T22:01:01.593Z,79.28
2022-09-12T22:03:29.922Z,79.04
2022-09-12T22:06:02.979Z,79.20
2022-09-12T22:08:32.531Z,79.25
2022-09-12T22:11:02.179Z,79.35
2022-09-12T22:13:33.832Z,79.75
2022-09-12T22:16:03.164Z,79.81
2022-09-12T22:18:35.732Z,80.37
2022-09-12T22:21:04.747Z,79.40
2022-09-12T22:23:50.399Z,79.41
2022-09-12T22:26:18.074Z,80.02
2022-09-12T22:28:47.287Z,79.15
2022-09-12T22:31:15.752Z,79.10
2022-09-12T22:33:43.624Z,79.39
2022-09-12T22:36:11.626Z,79.34
2022-09-12T22:38:39.374Z,79.09
2022-09-12T22:41:09.321Z,79.14
2022-09-12T22:43:37.524Z,79.27
2022-09-12T22:46:09.516Z,79.08
2022-09-12T22:48:38.189Z,79.50
2022-09-12T22:51:06.319Z,79.57
2022-09-12T22:53:34.960Z,79.38
2022-09-12T22:56:03.986Z,79.03
2022-09-12T22:58:31.890Z,79.05
2022-09-12T23:00:59.580Z,79.58
2022-09-12T23:03:27.177Z,79.13
2022-09-12T23:05:54.676Z,79.30
2022-09-12T23:08:22.177Z,79.42
2022-09-12T23:10:49.861Z,78.90
2022-09-12T23:13:17.863Z,78.68
2022-09-12T23:15:45.565Z,79.46
2022-09-12T23:18:13.288Z,79.67
2022-09-12T23:20:40.978Z,79.71
2022-09-12T23:23:08.572Z,79.33
2022-09-12T23:25:36.193Z,79.53
2022-09-12T23:28:04.336Z,79.04
2022-09-12T23:30:32.110Z,78.92
2022-09-12T23:33:01.146Z,78.74
2022-09-12T23:35:28.636Z,78.20
2022-09-12T23:37:56.056Z,78.67
2022-09-12T23:40:23.660Z,78.52
2022-09-12T23:42:51.419Z,78.49
2022-09-12T23:45:18.876Z,78.81
2022-09-12T23:47:46.310Z,78.75
2022-09-12T23:50:13.858Z,78.12
2022-09-12T23:52:41.330Z,78.92
2022-09-12T23:55:09.280Z,78.74
2022-09-12T23:57:37.045Z,78.99
